createdAt,value
2018-05-25T00:00:29.024Z,0
2018-05-25T00:01:30.411Z,0
2018-05-25T00:02:31.796Z,0
2018-05-25T00:03:33.185Z,0
2018-05-25T00:04:34.560Z,0
2018-05-25T00:05:35.939Z,0
2018-05-25T00:06:37.330Z,0
2018-05-25T00:07:38.720Z,0
2018-05-25T00:08:40.106Z,0
2018-05-25T00:09:41.490Z,0
2018-05-25T00:10:42.881Z,0
2018-05-25T00:11:44.275Z,0
2018-05-25T00:12:45.655Z,0
2018-05-25T00:13:47.041Z,0
2018-05-25T00:14:48.423Z,0
2018-05-25T00:15:49.807Z,0
2018-05-25T00:16:51.191Z,0
2018-05-25T00:17:52.586Z,0
2018-05-25T00:18:53.976Z,0
2018-05-25T00:19:55.359Z,0
2018-05-25T00:20:56.737Z,0
2018-05-25T00:21:58.133Z,0
2018-05-25T00:22:59.508Z,0
2018-05-25T00:24:00.903Z,0
2018-05-25T00:25:02.280Z,0
2018-05-25T00:26:03.668Z,0
2018-05-25T00:27:05.058Z,0
2018-05-25T00:28:06.445Z,0
2018-05-25T00:29:07.823Z,0
2018-05-25T00:30:09.213Z,0
2018-05-25T00:31:10.598Z,0
2018-05-25T00:32:11.994Z,0
2018-05-25T00:33:13.370Z,0
2018-05-25T00:34:14.763Z,0
2018-05-25T00:35:16.155Z,0
2018-05-25T00:36:17.547Z,0
2018-05-25T00:37:18.927Z,0
2018-05-25T00:38:20.324Z,0
2018-05-25T00:39:21.705Z,0
2018-05-25T00:40:23.085Z,0
2018-05-25T00:41:24.472Z,0
2018-05-25T00:42:25.856Z,0
2018-05-25T00:43:27.232Z,0
2018-05-25T00:44:28.615Z,0
2018-05-25T00:45:29.996Z,0
2018-05-25T00:46:31.378Z,0
2018-05-25T00:47:32.761Z,0
2018-05-25T00:48:34.138Z,0
2018-05-25T00:49:35.522Z,0
2018-05-25T00:50:36.911Z,0
2018-05-25T00:51:38.298Z,0
2018-05-25T00:52:39.685Z,0
2018-05-25T00:53:41.063Z,0
2018-05-25T00:54:42.448Z,0
2018-05-25T00:55:43.837Z,0
2018-05-25T00:56:45.219Z,0
2018-05-25T00:57:46.604Z,0
2018-05-25T00:58:47.996Z,0
2018-05-25T00:59:49.392Z,0
2018-05-25T01:00:50.777Z,0
2018-05-25T01:01:52.164Z,0
2018-05-25T01:02:53.548Z,0
2018-05-25T01:03:54.939Z,0
2018-05-25T01:04:56.318Z,0
2018-05-25T01:05:57.708Z,0
2018-05-25T01:06:59.089Z,0
2018-05-25T01:08:00.470Z,0
2018-05-25T01:09:01.852Z,0
2018-05-25T01:10:03.230Z,0
2018-05-25T01:11:04.620Z,0
2018-05-25T01:12:06.035Z,0
2018-05-25T01:13:07.415Z,0
2018-05-25T01:14:08.797Z,0
2018-05-25T01:15:10.633Z,0
2018-05-25T01:16:12.015Z,0
2018-05-25T01:17:13.405Z,0
2018-05-25T01:18:14.791Z,0
2018-05-25T01:19:16.197Z,0
2018-05-25T01:20:17.579Z,0
2018-05-25T01:21:18.973Z,0
2018-05-25T01:22:20.360Z,0
2018-05-25T01:23:21.744Z,0
2018-05-25T01:24:23.137Z,0
2018-05-25T01:25:24.522Z,0
2018-05-25T01:26:25.902Z,0
2018-05-25T01:27:27.290Z,0
2018-05-25T01:28:28.676Z,0
2018-05-25T01:29:30.072Z,0
2018-05-25T01:30:31.455Z,0
2018-05-25T01:31:32.844Z,0
2018-05-25T01:32:34.230Z,0
2018-05-25T01:33:35.613Z,0
2018-05-25T01:34:37.007Z,0
2018-05-25T01:35:38.408Z,0
2018-05-25T01:36:39.794Z,0
2018-05-25T01:37:41.189Z,0
2018-05-25T01:38:42.575Z,0
2018-05-25T01:39:43.970Z,0
2018-05-25T01:40:45.357Z,0
2018-05-25T01:41:46.733Z,0
2018-05-25T01:42:48.123Z,0
2018-05-25T01:43:49.503Z,0
2018-05-25T01:44:50.887Z,0
2018-05-25T01:45:52.275Z,0
2018-05-25T01:46:53.664Z,0
2018-05-25T01:47:55.056Z,0
2018-05-25T01:48:56.442Z,0
2018-05-25T01:49:57.831Z,0
2018-05-25T01:50:59.220Z,0
2018-05-25T01:52:00.600Z,0
2018-05-25T01:53:01.997Z,0
2018-05-25T01:54:03.375Z,0
2018-05-25T01:55:04.754Z,0
2018-05-25T01:56:06.140Z,0
2018-05-25T01:57:07.542Z,0
2018-05-25T01:58:08.920Z,0
2018-05-25T01:59:10.318Z,0
2018-05-25T02:00:11.701Z,0
2018-05-25T02:01:13.093Z,0
2018-05-25T02:02:14.478Z,0
2018-05-25T02:03:15.855Z,0
2018-05-25T02:04:17.248Z,0
2018-05-25T02:05:18.639Z,0
2018-05-25T02:06:20.025Z,0
2018-05-25T02:07:21.407Z,0
2018-05-25T02:08:22.795Z,0
2018-05-25T02:09:24.175Z,0
2018-05-25T02:10:25.557Z,0
2018-05-25T02:11:26.954Z,0
2018-05-25T02:12:28.343Z,0
2018-05-25T02:13:29.735Z,0
2018-05-25T02:14:31.117Z,4
2018-05-25T02:15:32.503Z,4
2018-05-25T02:16:33.887Z,0
2018-05-25T02:17:35.287Z,0
2018-05-25T02:18:36.675Z,0
2018-05-25T02:19:38.077Z,4
2018-05-25T02:20:39.472Z,0
2018-05-25T02:21:40.849Z,0
2018-05-25T02:22:42.222Z,4
2018-05-25T02:23:43.614Z,0
2018-05-25T02:24:44.998Z,4
2018-05-25T02:25:46.381Z,4
2018-05-25T02:26:47.766Z,4
2018-05-25T02:27:49.151Z,4
2018-05-25T02:28:50.542Z,4
2018-05-25T02:29:51.925Z,4
2018-05-25T02:30:53.318Z,8
2018-05-25T02:31:54.693Z,8
2018-05-25T02:32:56.085Z,8
2018-05-25T02:33:57.477Z,12
2018-05-25T02:34:58.863Z,12
2018-05-25T02:36:00.251Z,16
2018-05-25T02:37:01.637Z,16
2018-05-25T02:38:03.029Z,20
2018-05-25T02:39:04.415Z,20
2018-05-25T02:40:05.808Z,20
2018-05-25T02:41:07.193Z,24
2018-05-25T02:42:08.573Z,28
2018-05-25T02:43:09.967Z,28
2018-05-25T02:44:11.353Z,32
2018-05-25T02:45:12.740Z,32
2018-05-25T02:46:14.129Z,40
2018-05-25T02:47:15.515Z,40
2018-05-25T02:48:16.898Z,44
2018-05-25T02:49:18.280Z,52
2018-05-25T02:50:19.674Z,56
2018-05-25T02:51:21.062Z,56
2018-05-25T02:52:22.439Z,64
2018-05-25T02:53:23.826Z,72
2018-05-25T02:54:25.244Z,76
2018-05-25T02:55:26.593Z,80
2018-05-25T02:56:27.978Z,88
2018-05-25T02:57:29.364Z,96
2018-05-25T02:58:30.750Z,100
2018-05-25T02:59:32.137Z,104
2018-05-25T03:00:33.535Z,112
2018-05-25T03:01:34.927Z,120
2018-05-25T03:02:36.313Z,128
2018-05-25T03:03:37.709Z,136
2018-05-25T03:04:39.097Z,144
2018-05-25T03:05:40.485Z,152
2018-05-25T03:06:41.880Z,160
2018-05-25T03:07:43.264Z,172
2018-05-25T03:08:44.644Z,180
2018-05-25T03:09:46.030Z,192
2018-05-25T03:10:47.419Z,204
2018-05-25T03:11:48.804Z,212
2018-05-25T03:12:50.184Z,224
2018-05-25T03:13:51.574Z,236
2018-05-25T03:14:52.962Z,248
2018-05-25T03:15:54.350Z,260
2018-05-25T03:16:55.760Z,268
2018-05-25T03:17:57.140Z,280
2018-05-25T03:18:58.520Z,292
2018-05-25T03:19:59.915Z,304
2018-05-25T03:21:01.299Z,320
2018-05-25T03:22:02.688Z,336
2018-05-25T03:23:04.074Z,356
2018-05-25T03:24:05.456Z,376
2018-05-25T03:25:06.853Z,396
2018-05-25T03:26:08.277Z,416
2018-05-25T03:27:09.614Z,432
2018-05-25T03:28:11.016Z,448
2018-05-25T03:29:12.402Z,464
2018-05-25T03:30:13.787Z,484
2018-05-25T03:31:15.171Z,500
2018-05-25T03:32:16.562Z,516
2018-05-25T03:33:17.949Z,540
2018-05-25T03:34:19.345Z,560
2018-05-25T03:35:20.731Z,580
2018-05-25T03:36:22.129Z,604
2018-05-25T03:37:23.511Z,632
2018-05-25T03:38:24.894Z,656
2018-05-25T03:39:26.285Z,680
2018-05-25T03:40:27.675Z,704
2018-05-25T03:41:29.055Z,732
2018-05-25T03:42:30.453Z,760
2018-05-25T03:43:31.830Z,780
2018-05-25T03:44:33.219Z,804
2018-05-25T03:45:34.613Z,832
2018-05-25T03:46:36.002Z,856
2018-05-25T03:47:37.388Z,884
2018-05-25T03:48:38.773Z,908
2018-05-25T03:49:40.168Z,940
2018-05-25T03:50:41.568Z,960
2018-05-25T03:51:42.955Z,988
2018-05-25T03:52:44.342Z,1016
2018-05-25T03:53:45.722Z,1040
2018-05-25T03:54:47.119Z,1060
2018-05-25T03:55:48.505Z,1092
2018-05-25T03:56:49.904Z,1116
2018-05-25T03:57:51.297Z,1144
2018-05-25T03:58:52.695Z,1180
2018-05-25T03:59:54.086Z,1212
2018-05-25T04:00:55.479Z,1248
2018-05-25T04:01:56.865Z,1272
2018-05-25T04:02:58.262Z,1292
2018-05-25T04:03:59.659Z,1316
2018-05-25T04:05:01.040Z,1340
2018-05-25T04:06:02.431Z,1364
2018-05-25T04:07:03.814Z,1388
2018-05-25T04:08:05.198Z,1416
2018-05-25T04:09:06.928Z,1436
2018-05-25T04:10:08.214Z,1464
2018-05-25T04:11:09.605Z,1492
2018-05-25T04:12:10.990Z,1524
2018-05-25T04:13:12.375Z,1560
2018-05-25T04:14:13.779Z,1592
2018-05-25T04:15:15.160Z,1620
2018-05-25T04:16:16.542Z,1648
2018-05-25T04:17:17.938Z,1676
2018-05-25T04:18:19.334Z,1696
2018-05-25T04:19:20.720Z,1728
2018-05-25T04:20:22.120Z,1756
2018-05-25T04:21:23.507Z,1784
2018-05-25T04:22:24.923Z,1800
2018-05-25T04:23:26.297Z,1820
2018-05-25T04:24:27.693Z,1848
2018-05-25T04:25:29.075Z,1896
2018-05-25T04:26:30.459Z,1936
2018-05-25T04:27:31.853Z,1980
2018-05-25T04:28:33.241Z,2024
2018-05-25T04:29:34.633Z,2080
2018-05-25T04:30:36.023Z,2140
2018-05-25T04:31:37.427Z,2188
2018-05-25T04:32:38.816Z,2252
2018-05-25T04:33:40.209Z,2316
2018-05-25T04:34:41.598Z,2420
2018-05-25T04:35:43.045Z,2456
2018-05-25T04:36:44.324Z,2648
2018-05-25T04:37:45.713Z,2824
2018-05-25T04:38:47.110Z,2924
2018-05-25T04:39:48.488Z,3524
2018-05-25T04:40:49.886Z,4468
2018-05-25T04:41:51.270Z,5396
2018-05-25T04:42:52.671Z,6312
2018-05-25T04:43:54.052Z,6628
2018-05-25T04:44:55.452Z,6856
2018-05-25T04:45:56.848Z,6968
2018-05-25T04:46:58.231Z,7160
2018-05-25T04:47:59.626Z,7432
2018-05-25T04:49:01.026Z,7752
2018-05-25T04:50:02.416Z,8180
2018-05-25T04:51:03.806Z,8492
2018-05-25T04:52:05.204Z,8532
2018-05-25T04:53:06.599Z,8392
2018-05-25T04:54:07.999Z,7552
2018-05-25T04:55:09.396Z,6056
2018-05-25T04:56:10.793Z,5384
2018-05-25T04:57:12.191Z,6900
2018-05-25T04:58:13.582Z,7532
2018-05-25T04:59:14.984Z,6664
2018-05-25T05:00:16.380Z,6008
2018-05-25T05:01:17.777Z,6576
2018-05-25T05:02:19.172Z,8696
2018-05-25T05:03:20.582Z,9260
2018-05-25T05:04:21.981Z,8648
2018-05-25T05:05:23.377Z,5640
2018-05-25T05:06:24.791Z,4912
2018-05-25T05:07:26.189Z,4716
2018-05-25T05:08:27.601Z,4736
2018-05-25T05:09:28.986Z,4844
2018-05-25T05:10:30.397Z,5048
2018-05-25T05:11:31.790Z,5068
2018-05-25T05:12:33.195Z,5136
2018-05-25T05:13:34.596Z,5132
2018-05-25T05:14:36.001Z,4992
2018-05-25T05:15:37.389Z,4860
2018-05-25T05:16:38.791Z,4712
2018-05-25T05:17:40.187Z,4572
2018-05-25T05:18:41.591Z,4432
2018-05-25T05:19:42.988Z,4332
2018-05-25T05:20:44.385Z,4328
2018-05-25T05:21:45.792Z,4376
2018-05-25T05:22:47.187Z,4472
2018-05-25T05:23:48.580Z,4696
2018-05-25T05:24:49.979Z,5000
2018-05-25T05:25:51.381Z,7096
2018-05-25T05:26:52.772Z,11876
2018-05-25T05:27:54.168Z,15520
2018-05-25T05:28:55.567Z,17152
2018-05-25T05:29:56.982Z,17728
2018-05-25T05:30:58.374Z,18240
2018-05-25T05:31:59.776Z,19072
2018-05-25T05:33:01.174Z,20352
2018-05-25T05:34:02.582Z,20864
2018-05-25T05:35:03.962Z,20352
2018-05-25T05:36:05.353Z,19840
2018-05-25T05:37:06.763Z,18656
2018-05-25T05:38:08.154Z,18848
2018-05-25T05:39:09.548Z,16960
2018-05-25T05:40:10.953Z,10516
2018-05-25T05:41:12.359Z,9540
2018-05-25T05:42:13.749Z,15296
2018-05-25T05:43:15.147Z,19904
2018-05-25T05:44:16.544Z,2592
2018-05-25T05:45:17.956Z,22432
2018-05-25T05:46:19.349Z,22528
2018-05-25T05:47:20.749Z,22656
2018-05-25T05:48:22.147Z,25344
2018-05-25T05:49:23.549Z,26144
2018-05-25T05:50:24.951Z,24864
2018-05-25T05:51:26.355Z,23904
2018-05-25T05:52:27.749Z,22592
2018-05-25T05:53:29.158Z,18880
2018-05-25T05:54:30.573Z,19744
2018-05-25T05:55:31.989Z,18720
2018-05-25T05:56:33.385Z,12992
2018-05-25T05:57:34.784Z,11548
2018-05-25T05:58:36.890Z,8680
2018-05-25T05:59:38.290Z,8184
2018-05-25T06:00:39.691Z,8276
2018-05-25T06:01:41.082Z,8668
2018-05-25T06:02:42.490Z,8188
2018-05-25T06:03:43.894Z,8292
2018-05-25T06:04:45.286Z,8976
2018-05-25T06:05:46.696Z,7808
2018-05-25T06:06:48.098Z,8468
2018-05-25T06:07:49.507Z,8676
2018-05-25T06:08:50.930Z,10104
2018-05-25T06:09:52.323Z,8436
2018-05-25T06:10:53.724Z,8188
2018-05-25T06:11:55.126Z,8040
2018-05-25T06:12:56.519Z,8124
2018-05-25T06:13:57.927Z,8408
2018-05-25T06:14:59.335Z,8044
2018-05-25T06:16:00.730Z,8208
2018-05-25T06:17:02.153Z,8140
2018-05-25T06:18:03.545Z,8288
2018-05-25T06:19:04.948Z,8536
2018-05-25T06:20:06.353Z,8984
2018-05-25T06:21:07.751Z,9216
2018-05-25T06:22:09.160Z,9704
2018-05-25T06:23:10.565Z,9312
2018-05-25T06:24:11.982Z,10372
2018-05-25T06:25:13.382Z,10436
2018-05-25T06:26:14.793Z,10176
2018-05-25T06:27:16.191Z,9352
2018-05-25T06:28:17.586Z,9004
2018-05-25T06:29:18.991Z,9936
2018-05-25T06:30:20.400Z,9704
2018-05-25T06:31:21.814Z,10012
2018-05-25T06:32:23.210Z,11444
2018-05-25T06:33:24.600Z,8884
2018-05-25T06:34:26.020Z,9356
2018-05-25T06:35:27.418Z,9824
2018-05-25T06:36:28.835Z,9448
2018-05-25T06:37:30.239Z,8604
2018-05-25T06:38:31.636Z,10420
2018-05-25T06:39:33.039Z,9544
2018-05-25T06:40:34.433Z,10368
2018-05-25T06:41:35.832Z,9940
2018-05-25T06:42:37.235Z,9936
2018-05-25T06:43:38.645Z,9804
2018-05-25T06:44:40.043Z,9616
2018-05-25T06:45:41.450Z,8280
2018-05-25T06:46:42.863Z,13132
2018-05-25T06:47:44.263Z,9428
2018-05-25T06:48:45.667Z,11000
2018-05-25T06:49:47.056Z,9232
2018-05-25T06:50:48.454Z,9296
2018-05-25T06:51:49.857Z,9120
2018-05-25T06:52:51.252Z,9112
2018-05-25T06:53:52.653Z,8404
2018-05-25T06:54:54.048Z,8436
2018-05-25T06:55:55.447Z,6480
2018-05-25T06:56:56.856Z,6188
2018-05-25T06:57:58.315Z,4392
2018-05-25T06:58:59.660Z,6584
2018-05-25T07:00:01.061Z,7172
2018-05-25T07:01:02.453Z,7320
2018-05-25T07:02:03.853Z,6936
2018-05-25T07:03:05.258Z,5988
2018-05-25T07:04:06.651Z,6876
2018-05-25T07:05:08.050Z,6328
2018-05-25T07:06:09.455Z,8208
2018-05-25T07:07:10.863Z,6688
2018-05-25T07:08:12.238Z,5856
2018-05-25T07:09:13.645Z,5516
2018-05-25T07:10:15.089Z,8912
2018-05-25T07:11:16.479Z,5128
2018-05-25T07:12:17.872Z,7544
2018-05-25T07:13:19.278Z,9792
2018-05-25T07:14:20.669Z,12304
2018-05-25T07:15:22.076Z,4860
2018-05-25T07:16:23.479Z,5736
2018-05-25T07:17:24.880Z,7196
2018-05-25T07:18:26.290Z,7372
2018-05-25T07:19:27.689Z,0
2018-05-25T07:20:29.098Z,5040
2018-05-25T07:21:30.490Z,4768
2018-05-25T07:22:31.882Z,5136
2018-05-25T07:23:33.282Z,0
2018-05-25T07:24:34.690Z,5876
2018-05-25T07:25:36.102Z,5256
2018-05-25T07:26:37.484Z,5060
2018-05-25T07:27:38.878Z,5180
2018-05-25T07:28:40.282Z,5072
2018-05-25T07:29:41.678Z,4988
2018-05-25T07:30:43.083Z,4784
2018-05-25T07:31:44.471Z,5008
2018-05-25T07:32:45.873Z,4500
2018-05-25T07:33:47.262Z,4828
2018-05-25T07:34:48.661Z,4888
2018-05-25T07:35:50.067Z,4892
2018-05-25T07:36:51.467Z,4908
2018-05-25T07:37:52.867Z,12120
2018-05-25T07:38:54.269Z,4960
2018-05-25T07:39:55.661Z,4924
2018-05-25T07:40:57.054Z,4760
2018-05-25T07:41:58.465Z,4752
2018-05-25T07:43:01.221Z,4936
2018-05-25T07:44:02.619Z,4780
2018-05-25T07:45:04.031Z,5188
2018-05-25T07:46:05.429Z,4796
2018-05-25T07:47:06.822Z,4860
2018-05-25T07:48:08.228Z,4816
2018-05-25T07:49:09.626Z,4808
2018-05-25T07:50:11.024Z,4848
2018-05-25T07:51:12.420Z,4868
2018-05-25T07:52:13.816Z,5064
2018-05-25T07:53:15.367Z,4632
2018-05-25T07:54:16.780Z,4732
2018-05-25T07:55:18.171Z,4724
2018-05-25T07:56:19.579Z,4704
2018-05-25T07:57:20.970Z,4796
2018-05-25T07:58:22.369Z,4768
2018-05-25T07:59:23.769Z,4932
2018-05-25T08:00:25.159Z,4696
2018-05-25T08:01:26.592Z,4548
2018-05-25T08:02:29.080Z,4824
2018-05-25T08:03:30.481Z,4668
2018-05-25T08:04:31.883Z,4492
2018-05-25T08:05:33.560Z,4500
2018-05-25T08:06:35.746Z,4928
2018-05-25T08:07:37.139Z,4700
2018-05-25T08:08:38.527Z,4592
2018-05-25T08:09:39.949Z,4656
2018-05-25T08:10:41.352Z,4700
2018-05-25T08:11:42.752Z,4540
2018-05-25T08:12:44.164Z,4412
2018-05-25T08:13:45.562Z,4584
2018-05-25T08:14:47.776Z,4460
2018-05-25T08:15:49.805Z,4456
2018-05-25T08:16:51.200Z,4440
2018-05-25T08:17:52.613Z,4400
2018-05-25T08:18:54.013Z,4356
2018-05-25T08:19:55.436Z,4340
2018-05-25T08:20:56.941Z,4236
2018-05-25T08:21:58.398Z,4260
2018-05-25T08:22:59.688Z,4088
2018-05-25T08:24:01.113Z,4028
2018-05-25T08:25:02.495Z,4104
2018-05-25T08:26:03.906Z,4220
2018-05-25T08:27:05.307Z,3580
2018-05-25T08:28:06.711Z,4080
2018-05-25T08:29:08.103Z,3728
2018-05-25T08:30:09.505Z,4112
2018-05-25T08:31:10.903Z,3984
2018-05-25T08:32:12.317Z,4060
2018-05-25T08:33:13.704Z,4024
2018-05-25T08:34:15.114Z,4012
2018-05-25T08:35:16.517Z,3932
2018-05-25T08:36:17.935Z,4160
2018-05-25T08:37:19.320Z,4648
2018-05-25T08:38:20.729Z,3692
2018-05-25T08:39:22.919Z,4068
2018-05-25T08:40:24.321Z,3876
2018-05-25T08:41:25.727Z,4148
2018-05-25T08:42:27.149Z,3916
2018-05-25T08:43:28.551Z,3848
2018-05-25T08:44:29.971Z,3684
2018-05-25T08:45:31.385Z,3804
2018-05-25T08:46:32.790Z,3512
2018-05-25T08:47:34.194Z,3608
2018-05-25T08:48:35.600Z,3640
2018-05-25T08:49:37.006Z,3712
2018-05-25T08:50:38.406Z,3688
2018-05-25T08:51:39.788Z,3904
2018-05-25T08:52:41.198Z,3772
2018-05-25T08:53:42.592Z,3888
2018-05-25T08:54:43.996Z,3668
2018-05-25T08:55:45.384Z,3652
2018-05-25T08:56:46.790Z,3784
2018-05-25T08:57:48.200Z,3824
2018-05-25T08:58:49.594Z,3876
2018-05-25T08:59:51.015Z,3932
2018-05-25T09:00:52.420Z,4000
2018-05-25T09:01:53.817Z,4004
2018-05-25T09:02:55.224Z,3896
2018-05-25T09:03:56.621Z,4072
2018-05-25T09:04:58.026Z,3828
2018-05-25T09:05:59.429Z,3828
2018-05-25T09:07:00.829Z,3772
2018-05-25T09:08:02.240Z,3856
2018-05-25T09:09:03.635Z,3712
2018-05-25T09:10:05.049Z,3852
2018-05-25T09:11:06.448Z,3724
2018-05-25T09:12:07.847Z,3856
2018-05-25T09:13:09.245Z,3888
2018-05-25T09:14:10.650Z,3804
2018-05-25T09:15:12.051Z,3856
2018-05-25T09:16:13.449Z,4032
2018-05-25T09:17:14.847Z,3848
2018-05-25T09:18:16.260Z,3924
2018-05-25T09:19:17.664Z,3944
2018-05-25T09:20:19.056Z,3940
2018-05-25T09:21:20.457Z,4104
2018-05-25T09:22:21.880Z,3912
2018-05-25T09:23:23.266Z,4084
2018-05-25T09:24:24.672Z,3812
2018-05-25T09:25:26.062Z,3816
2018-05-25T09:26:27.464Z,3852
2018-05-25T09:27:28.868Z,3912
2018-05-25T09:28:30.264Z,4068
2018-05-25T09:29:31.667Z,3872
2018-05-25T09:30:33.121Z,3944
2018-05-25T09:31:34.475Z,4056
2018-05-25T09:32:35.885Z,3940
2018-05-25T09:33:37.292Z,3904
2018-05-25T09:34:38.702Z,3916
2018-05-25T09:35:40.103Z,3928
2018-05-25T09:36:41.527Z,3916
2018-05-25T09:37:42.891Z,3868
2018-05-25T09:38:44.295Z,3936
2018-05-25T09:39:45.703Z,3800
2018-05-25T09:40:47.108Z,3772
2018-05-25T09:41:48.515Z,3540
2018-05-25T09:42:49.914Z,3288
2018-05-25T09:43:51.324Z,3144
2018-05-25T09:44:52.730Z,3208
2018-05-25T09:45:54.128Z,3064
2018-05-25T09:46:55.560Z,2908
2018-05-25T09:47:56.953Z,2992
2018-05-25T09:48:58.355Z,2996
2018-05-25T09:49:59.758Z,2940
2018-05-25T09:51:01.168Z,2988
2018-05-25T09:52:02.574Z,3004
2018-05-25T09:53:03.993Z,2944
2018-05-25T09:54:05.399Z,2932
2018-05-25T09:55:06.795Z,2964
2018-05-25T09:56:08.207Z,3132
2018-05-25T09:57:09.599Z,2912
2018-05-25T09:58:11.848Z,2964
2018-05-25T09:59:13.251Z,2896
2018-05-25T10:00:14.656Z,2912
2018-05-25T10:01:16.061Z,2888
2018-05-25T10:02:17.458Z,2868
2018-05-25T10:03:18.862Z,2904
2018-05-25T10:04:20.279Z,2908
2018-05-25T10:05:21.675Z,2928
2018-05-25T10:06:23.063Z,2972
2018-05-25T10:07:24.471Z,3064
2018-05-25T10:08:25.868Z,2992
2018-05-25T10:09:27.267Z,2984
2018-05-25T10:10:28.673Z,2988
2018-05-25T10:11:30.080Z,2996
2018-05-25T10:12:31.485Z,3000
2018-05-25T10:13:32.877Z,3012
2018-05-25T10:14:34.284Z,3008
2018-05-25T10:15:35.699Z,3072
2018-05-25T10:16:37.089Z,2928
2018-05-25T10:17:38.486Z,3024
2018-05-25T10:18:39.894Z,3000
2018-05-25T10:19:41.297Z,3004
2018-05-25T10:20:42.697Z,3192
2018-05-25T10:21:44.108Z,3056
2018-05-25T10:22:45.530Z,3016
2018-05-25T10:23:46.935Z,3112
2018-05-25T10:24:48.337Z,3016
2018-05-25T10:25:49.739Z,3032
2018-05-25T10:26:51.137Z,3024
2018-05-25T10:27:52.541Z,3008
2018-05-25T10:28:53.949Z,3024
2018-05-25T10:29:55.352Z,3028
2018-05-25T10:30:56.762Z,3068
2018-05-25T10:31:58.162Z,3160
2018-05-25T10:32:59.565Z,3032
2018-05-25T10:34:00.981Z,3052
2018-05-25T10:35:02.442Z,3048
2018-05-25T10:36:03.769Z,3048
2018-05-25T10:37:05.188Z,3068
2018-05-25T10:38:06.588Z,3044
2018-05-25T10:39:08.005Z,3076
2018-05-25T10:40:09.389Z,3084
2018-05-25T10:41:11.724Z,3108
2018-05-25T10:42:13.022Z,3112
2018-05-25T10:43:14.418Z,3120
2018-05-25T10:44:15.827Z,3136
2018-05-25T10:45:17.234Z,3112
2018-05-25T10:46:18.644Z,3140
2018-05-25T10:47:20.890Z,3132
2018-05-25T10:48:22.296Z,3160
2018-05-25T10:49:23.686Z,3200
2018-05-25T10:50:25.086Z,3128
2018-05-25T10:51:26.492Z,3212
2018-05-25T10:52:27.888Z,3240
2018-05-25T10:53:29.291Z,3252
2018-05-25T10:54:30.686Z,3316
2018-05-25T10:55:32.083Z,3332
2018-05-25T10:56:33.484Z,3328
2018-05-25T10:57:34.890Z,3364
2018-05-25T10:58:36.291Z,3344
2018-05-25T10:59:37.688Z,3412
2018-05-25T11:00:39.091Z,3488
2018-05-25T11:01:40.481Z,3516
2018-05-25T11:02:41.883Z,3576
2018-05-25T11:03:43.329Z,3676
2018-05-25T11:04:44.693Z,5824
2018-05-25T11:05:46.101Z,8304
2018-05-25T11:06:47.508Z,11076
2018-05-25T11:07:48.887Z,9396
2018-05-25T11:08:50.299Z,9444
2018-05-25T11:09:51.709Z,11376
2018-05-25T11:10:53.098Z,12604
2018-05-25T11:11:54.501Z,10072
2018-05-25T11:12:55.898Z,10388
2018-05-25T11:13:57.304Z,11768
2018-05-25T11:14:58.719Z,10648
2018-05-25T11:16:00.124Z,10460
2018-05-25T11:17:01.515Z,10652
2018-05-25T11:18:02.913Z,10344
2018-05-25T11:19:04.342Z,11116
2018-05-25T11:20:05.744Z,11984
2018-05-25T11:21:07.158Z,10672
2018-05-25T11:22:08.577Z,25888
2018-05-25T11:23:09.990Z,46400
2018-05-25T11:24:11.390Z,58240
2018-05-25T11:25:12.792Z,54016
2018-05-25T11:26:14.194Z,66912
2018-05-25T11:27:15.601Z,71136
2018-05-25T11:28:16.991Z,58272
2018-05-25T11:29:18.399Z,18208
2018-05-25T11:30:19.810Z,30400
2018-05-25T11:31:21.204Z,58432
2018-05-25T11:32:22.604Z,75296
2018-05-25T11:33:24.007Z,50496
2018-05-25T11:34:25.417Z,67424
2018-05-25T11:35:26.815Z,71680
2018-05-25T11:36:28.232Z,76224
2018-05-25T11:37:29.631Z,53088
2018-05-25T11:38:31.052Z,39488
2018-05-25T11:39:32.448Z,73408
2018-05-25T11:40:33.851Z,61792
2018-05-25T11:41:35.254Z,70912
2018-05-25T11:42:36.663Z,51232
2018-05-25T11:43:38.026Z,34752
2018-05-25T11:44:39.416Z,47456
2018-05-25T11:45:40.820Z,21120
2018-05-25T11:46:42.186Z,24128
2018-05-25T11:47:43.545Z,43072
2018-05-25T11:48:44.915Z,21472
2018-05-25T11:49:46.317Z,42720
2018-05-25T11:50:47.732Z,33184
2018-05-25T11:51:49.145Z,38592
2018-05-25T11:52:50.551Z,16992
2018-05-25T11:53:51.956Z,24096
2018-05-25T11:54:53.369Z,19296
2018-05-25T11:55:54.771Z,46240
2018-05-25T11:56:56.175Z,18368
2018-05-25T11:57:57.581Z,54560
2018-05-25T11:58:58.979Z,33600
2018-05-25T12:00:00.387Z,35008
2018-05-25T12:01:01.796Z,42880
2018-05-25T12:02:03.196Z,50656
2018-05-25T12:03:04.589Z,29504
2018-05-25T12:04:05.995Z,59360
2018-05-25T12:05:07.396Z,52672
2018-05-25T12:06:08.801Z,36704
2018-05-25T12:07:10.207Z,36544
2018-05-25T12:08:11.609Z,41856
2018-05-25T12:09:13.010Z,51584
2018-05-25T12:10:14.416Z,43456
2018-05-25T12:11:15.822Z,36288
2018-05-25T12:12:17.224Z,25504
2018-05-25T12:13:18.614Z,47936
2018-05-25T12:14:20.023Z,36992
2018-05-25T12:15:21.442Z,26304
2018-05-25T12:16:22.842Z,22656
2018-05-25T12:17:24.235Z,26144
2018-05-25T12:18:25.639Z,26176
2018-05-25T12:19:27.043Z,24096
2018-05-25T12:20:28.442Z,16352
2018-05-25T12:21:29.867Z,16512
2018-05-25T12:22:31.261Z,12296
2018-05-25T12:23:32.669Z,15172
2018-05-25T12:24:34.061Z,21056
2018-05-25T12:25:35.462Z,26848
2018-05-25T12:26:36.861Z,21920
2018-05-25T12:27:38.263Z,21184
2018-05-25T12:28:39.665Z,24640
2018-05-25T12:29:41.069Z,16032
2018-05-25T12:30:42.464Z,24160
2018-05-25T12:31:43.882Z,11284
2018-05-25T12:32:45.291Z,39424
2018-05-25T12:33:46.691Z,22400
2018-05-25T12:34:48.096Z,12916
2018-05-25T12:35:49.506Z,9208
2018-05-25T12:36:50.905Z,8272
2018-05-25T12:37:52.322Z,8228
2018-05-25T12:38:53.728Z,8276
2018-05-25T12:39:55.138Z,8144
2018-05-25T12:40:56.544Z,7828
2018-05-25T12:41:57.926Z,7164
2018-05-25T12:42:59.330Z,6684
2018-05-25T12:44:00.729Z,6640
2018-05-25T12:45:02.141Z,6856
2018-05-25T12:46:03.544Z,6436
2018-05-25T12:47:04.943Z,6192
2018-05-25T12:48:06.340Z,6376
2018-05-25T12:49:07.746Z,7056
2018-05-25T12:50:09.145Z,6352
2018-05-25T12:51:10.535Z,6356
2018-05-25T12:52:11.929Z,6508
2018-05-25T12:53:13.326Z,6772
2018-05-25T12:54:14.735Z,6984
2018-05-25T12:55:16.140Z,6972
2018-05-25T12:56:17.524Z,7464
2018-05-25T12:57:18.935Z,11684
2018-05-25T12:58:20.346Z,24320
2018-05-25T12:59:21.754Z,25760
2018-05-25T13:00:23.151Z,13368
2018-05-25T13:01:24.544Z,7120
2018-05-25T13:02:25.955Z,6260
2018-05-25T13:03:27.351Z,5904
2018-05-25T13:04:28.751Z,5628
2018-05-25T13:05:30.148Z,5152
2018-05-25T13:06:31.546Z,4748
2018-05-25T13:07:32.947Z,4448
2018-05-25T13:08:34.345Z,3732
2018-05-25T13:09:35.741Z,3352
2018-05-25T13:10:37.143Z,3048
2018-05-25T13:11:38.540Z,2900
2018-05-25T13:12:39.951Z,2952
2018-05-25T13:13:41.341Z,3344
2018-05-25T13:14:42.738Z,3128
2018-05-25T13:15:44.141Z,2620
2018-05-25T13:16:45.542Z,2564
2018-05-25T13:17:46.949Z,2640
2018-05-25T13:18:48.336Z,2340
2018-05-25T13:19:49.730Z,2236
2018-05-25T13:20:51.121Z,2044
2018-05-25T13:21:52.517Z,1968
2018-05-25T13:22:53.916Z,1924
2018-05-25T13:23:55.313Z,1896
2018-05-25T13:24:56.691Z,1844
2018-05-25T13:25:58.091Z,1764
2018-05-25T13:26:59.506Z,1776
2018-05-25T13:28:00.893Z,1764
2018-05-25T13:29:02.317Z,1756
2018-05-25T13:30:03.719Z,1740
2018-05-25T13:31:05.113Z,1732
2018-05-25T13:32:06.506Z,1732
2018-05-25T13:33:07.902Z,1712
2018-05-25T13:34:09.292Z,1720
2018-05-25T13:35:10.688Z,1660
2018-05-25T13:36:12.091Z,1692
2018-05-25T13:37:13.478Z,1656
2018-05-25T13:38:14.876Z,1704
2018-05-25T13:39:16.276Z,1608
2018-05-25T13:40:17.664Z,1596
2018-05-25T13:41:19.061Z,1588
2018-05-25T13:42:20.472Z,1612
2018-05-25T13:43:21.857Z,1560
2018-05-25T13:44:23.278Z,1548
2018-05-25T13:45:24.674Z,1572
2018-05-25T13:46:26.077Z,1616
2018-05-25T13:47:27.486Z,1524
2018-05-25T13:48:28.888Z,1520
2018-05-25T13:49:30.283Z,1500
2018-05-25T13:50:31.680Z,1504
2018-05-25T13:51:33.074Z,1492